ADDS METAR Data INFO
IDs: Format: Raw Decoded Include TAF

Data at: 0000 UTC 24 Feb 2018

KJSV 232355Z AUTO 08009KT 7SM -RA OVC005 10/09 A3010 RMK AO2 P0006 LTG LTG DSNT SW AND W
KJSV 232335Z AUTO 09011KT 4SM -RA OVC009 10/09 A3013 RMK AO2 P0005 LTG LTG DSNT SW
KJSV 232315Z AUTO 08009KT 4SM VCTSRA OVC007 10/09 A3014 RMK AO2 P0003 LTG DSNT NW
KJSV 232255Z AUTO 09009KT 5SM -RA OVC007 10/09 A3013 RMK AO2 P0003 LTG LTG DSNT SW
KJSV 232235Z AUTO 10008G15KT 5SM -RA BKN007 OVC010 10/09 A3013 RMK AO2 P0002 LTG LTG DSNT SW
KJSV 232215Z AUTO 10010KT 5SM -RA OVC007 10/08 A3014 RMK AO2 P0002
KJSV 232155Z AUTO 11008KT 7SM -RA OVC007 10/08 A3015 RMK AO2 P0003
KJSV 232135Z AUTO 10009KT 7SM RA OVC007 10/08 A3015 RMK AO2 P0002
KJSV 232115Z AUTO 11005KT 7SM -RA OVC005 09/08 A3017 RMK AO2 LTG LTG DSNT W
KJSV 232055Z AUTO 10004KT 5SM RA OVC005 09/08 A3016 RMK AO2 P0016
KJSV 232035Z AUTO 09006KT 4SM RA OVC008 08/08 A3017 RMK AO2 P0012
KJSV 232020Z AUTO 10004KT 4SM RA OVC008 08/07 A3020 RMK AO2 P0008 LTG LTG DSNT SW
KJSV 231955Z AUTO 09004KT 4SM RA OVC006 08/07 A3020 RMK AO2 P0016 LTG LTG DSNT SE AND SW
KJSV 231935Z AUTO 00000KT 4SM RA OVC006 08/07 A3021 RMK AO2 P0010
KJSV 231915Z AUTO 00000KT 4SM RA BKN004 BKN009 08/07 A3024 RMK AO2 P0005 LTG LTG DSNT SE THRU W
KJSV 231855Z AUTO 10004KT 4SM RA BKN004 07/07 A3023 RMK AO2 P0014 LTG LTG DSNT S
KJSV 231835Z AUTO 06006KT 4SM RA SCT004 BKN008 07/07 A3023 RMK AO2 P0008
KJSV 231815Z AUTO 01004KT 5SM RA OVC008 07/07 A3027 RMK AO2 P0003 LTG LTG DSNT S AND SW
KJSV 231755Z AUTO 29004KT 5SM VCTSRA OVC008 07/07 A3028 RMK AO2 P0005 LTG DSNT S
KJSV 231735Z AUTO 00000KT 10SM -RA SCT008 BKN013 08/07 A3028 RMK AO2
KJSV 231715Z AUTO 10005KT 10SM -DZ BKN008 07/07 A3024 RMK AO2
KJSV 231655Z AUTO 00000KT 7SM -RA BKN005 OVC010 07/07 A3026 RMK AO2 P0001
KJSV 231635Z AUTO 33003KT 7SM -RA OVC005 07/07 A3026 RMK AO2
KJSV 231615Z AUTO 00000KT 7SM OVC003 07/06 A3025 RMK AO2
KJSV 231555Z AUTO 10004KT 4SM BR OVC003 07/06 A3025 RMK AO2
KJSV 231535Z AUTO 00000KT 3SM BR OVC003 07/06 A3028 RMK AO2
KJSV 231515Z AUTO 09003KT 4SM BR OVC003 07/06 A3025 RMK AO2 LTG LTG DSNT SW
KJSV 231455Z AUTO 00000KT 7SM OVC005 06/06 A3027 RMK AO2 LTG DSNT SW
KJSV 231435Z AUTO 00000KT 10SM OVC007 06/06 A3027 RMK AO2
KJSV 231415Z AUTO 00000KT 7SM OVC007 06/05 A3028 RMK AO2
KJSV 231355Z AUTO 00000KT 7SM SCT002 OVC007 06/05 A3028 RMK AO2
KJSV 231335Z AUTO 00000KT 7SM OVC009 06/05 A3028 RMK AO2 LTG DSNT S
KJSV 231315Z AUTO 00000KT 7SM OVC009 06/05 A3028 RMK AO2
KJSV 231255Z AUTO 00000KT 5SM BR OVC012 06/05 A3028 RMK AO2
KJSV 231235Z AUTO 00000KT 7SM OVC015 06/05 A3027 RMK AO2 LTG DSNT SW
KJSV 231215Z AUTO 00000KT 7SM OVC017 06/05 A3027 RMK AO2 LTG DSNT SW
KJSV 231155Z AUTO 00000KT 7SM SCT013 OVC019 06/05 A3028 RMK AO2
KJSV 231135Z AUTO 00000KT 7SM SCT002 OVC013 06/05 A3028 RMK AO2
KJSV 231115Z AUTO 00000KT 7SM SCT002 OVC015 06/05 A3027 RMK AO2 LTG DSNT S
KJSV 231055Z AUTO 24003KT 5SM BR SCT004 OVC013 06/05 A3026 RMK AO2
KJSV 231035Z AUTO 23004KT 5SM BR BKN006 OVC013 06/05 A3027 RMK AO2
KJSV 231015Z AUTO 26003KT 10SM SCT006 OVC015 06/05 A3026 RMK AO2
KJSV 230955Z AUTO 30006KT 10SM SCT003 SCT010 OVC015 06/05 A3024 RMK AO2
KJSV 230935Z AUTO 30005KT 3SM BR BKN003 OVC008 07/06 A3023 RMK AO2 LTG LTG DSNT SE
KJSV 230915Z AUTO 29004KT 7SM SCT003 OVC008 07/06 A3023 RMK AO2 LTG DSNT S
KJSV 230855Z AUTO 00000KT 7SM OVC008 07/06 A3023 RMK AO2
KJSV 230835Z AUTO 00000KT 2 1/2SM BR BKN003 OVC008 07/06 A3022 RMK AO2 LTG LTG DSNT S
KJSV 230815Z AUTO 00000KT 3SM BR BKN005 OVC008 07/06 A3023 RMK AO2
KJSV 230755Z AUTO 00000KT 3SM BR OVC005 07/06 A3023 RMK AO2 LTG LTG DSNT S
KJSV 230735Z AUTO 00000KT 3SM BR SCT003 OVC008 07/06 A3023 RMK AO2
KJSV 230715Z AUTO 00000KT 2SM BR OVC003 07/06 A3023 RMK AO2
KJSV 230655Z AUTO 00000KT 2 1/2SM BR OVC005 07/06 A3022 RMK AO2 LTG LTG DSNT SE AND S
KJSV 230635Z AUTO 00000KT 4SM BR OVC007 07/06 A3023 RMK AO2 LTG LTG DSNT S
KJSV 230615Z AUTO 00000KT 7SM BKN005 OVC019 07/06 A3023 RMK AO2 LTG DSNT SE
KJSV 230555Z AUTO 00000KT 5SM BR SCT005 OVC019 07/06 A3023 RMK AO2
KJSV 230535Z AUTO 00000KT 10SM OVC021 07/06 A3024 RMK AO2 LTG DSNT S
KJSV 230515Z AUTO 00000KT 7SM OVC021 07/06 A3024 RMK AO2 LTG DSNT E
KJSV 230455Z AUTO 00000KT 7SM OVC023 07/06 A3023 RMK AO2
KJSV 230435Z AUTO 00000KT 7SM SCT006 BKN025 07/07 A3023 RMK AO2
KJSV 230415Z AUTO 00000KT 10SM BKN006 OVC027 07/06 A3023 RMK AO2 LTG DSNT SE
KJSV 230355Z AUTO 00000KT 10SM OVC006 07/06 A3022 RMK AO2
KJSV 230335Z AUTO 00000KT 10SM OVC006 07/07 A3022 RMK AO2
KJSV 230315Z AUTO 13003KT 10SM BKN006 OVC029 07/06 A3022 RMK AO2 LTG DSNT SE
KJSV 230255Z AUTO 11003KT 10SM BKN006 OVC031 07/06 A3021 RMK AO2
KJSV 230235Z AUTO 00000KT 10SM SCT006 OVC031 07/06 A3021 RMK AO2
KJSV 230215Z AUTO 11003KT 10SM OVC033 07/06 A3021 RMK AO2
KJSV 230155Z AUTO 12003KT 10SM BKN033 OVC039 07/06 A3021 RMK AO2 P0001
KJSV 230135Z AUTO 12004KT 7SM SCT002 BKN033 OVC038 07/06 A3020 RMK AO2 P0001
KJSV 230115Z AUTO 10003KT 5SM -RA BKN004 BKN010 BKN039 07/06 A3020 RMK AO2 P0001
KJSV 230055Z AUTO 00000KT 5SM VCTSRA SCT004 SCT008 BKN049 07/06 A3021 RMK AO2 P0009 LTG DSNT E AND SE
KJSV 230035Z AUTO 00000KT 7SM -RA BKN004 BKN008 BKN012 07/06 A3021 RMK AO2 P0007 LTG LTG DSNT NE THRU S
KJSV 230015Z AUTO 08003KT 4SM TSRA BKN006 OVC010 07/06 A3021 RMK AO2 P0003 LTG DSNT E THRU S
KJSV 222355Z AUTO 30003KT 3SM TSRA OVC010 07/06 A3022 RMK AO2 P0010 LTG DSNT S
KJSV 222335Z AUTO 00000KT 4SM VCTSRA OVC008 07/06 A3022 RMK AO2 P0006 LTG DSNT SW
KJSV 222315Z AUTO 00000KT 7SM -RA OVC008 07/06 A3019 RMK AO2 P0001
KJSV 222255Z AUTO 00000KT 10SM -RA OVC008 07/06 A3021 RMK AO2 P0004 LTG LTG DSNT SE SW AND NW
KJSV 222235Z AUTO 10006KT 10SM -RA OVC008 07/06 A3017 RMK AO2 P0004 LTG LTG DSNT SW AND W
KJSV 222215Z AUTO 08006KT 10SM -RA OVC008 07/06 A3018 RMK AO2 P0001 LTG LTG DSNT SE THRU W
KJSV 222155Z AUTO 10008KT 10SM OVC010 07/06 A3020 RMK AO2 P0002 LTG DSNT SE THRU W
KJSV 222135Z AUTO 10003KT 10SM OVC010 08/07 A3020 RMK AO2 P0002 LTG DSNT SE THRU W
KJSV 222115Z AUTO 11004KT 7SM RA OVC010 07/06 A3020 RMK AO2 P0001 LTG LTG DSNT S
KJSV 222055Z AUTO 00000KT 10SM OVC010 07/06 A3021 RMK AO2 P0001 LTG DSNT S THRU W
KJSV 222035Z AUTO 08005KT 10SM RA OVC008 07/06 A3018 RMK AO2 LTG LTG DSNT S
KJSV 222015Z AUTO 09007KT 10SM -RA OVC008 07/06 A3019 RMK AO2
KJSV 221955Z AUTO 07009G14KT 10SM OVC006 07/06 A3018 RMK AO2 P0004 LTG DSNT SE AND S
KJSV 221935Z AUTO 08011G16KT 5SM -RA OVC006 06/05 A3017 RMK AO2 P0004 LTG LTG DSNT S
KJSV 221915Z AUTO 05004KT 10SM RA OVC006 06/05 A3029 RMK AO2 P0001 LTG LTG DSNT SE THRU W
KJSV 221855Z AUTO 09009KT 10SM -RA OVC006 06/05 A3026 RMK AO2 P0003 LTG LTG DSNT SE
KJSV 221835Z AUTO 10007KT 7SM RA OVC006 06/05 A3029 RMK AO2 P0001 LTG LTG DSNT SE
KJSV 221815Z AUTO 13005KT 10SM OVC006 06/05 A3032 RMK AO2 LTG DSNT S
KJSV 221755Z AUTO 12009KT 10SM OVC006 06/05 A3032 RMK AO2 LTG DSNT S
KJSV 221735Z AUTO 11005KT 10SM OVC004 06/05 A3032 RMK AO2 LTG DSNT S
KJSV 221715Z AUTO 14006KT 10SM OVC004 06/05 A3034 RMK AO2
KJSV 221655Z AUTO 16005KT 10SM OVC004 06/05 A3033 RMK AO2 LTG DSNT SW
KJSV 221635Z AUTO 11007KT 10SM OVC004 06/05 A3030 RMK AO2
KJSV 221615Z AUTO 13007KT 7SM OVC004 05/04 A3031 RMK AO2
KJSV 221555Z AUTO 10005KT 4SM BR OVC004 05/04 A3031 RMK AO2
KJSV 221535Z AUTO 10005KT 5SM BR OVC004 05/03 A3031 RMK AO2
KJSV 221515Z AUTO 13003KT 5SM BR OVC004 05/03 A3033 RMK AO2
KJSV 221455Z AUTO 00000KT 7SM OVC004 05/03 A3035 RMK AO2 LTG DSNT SE
KJSV 221435Z AUTO 00000KT 7SM OVC004 05/03 A3035 RMK AO2
KJSV 221415Z AUTO 00000KT 5SM BR OVC006 04/03 A3033 RMK AO2
KJSV 221355Z AUTO 00000KT 4SM BR OVC008 04/02 A3031 RMK AO2
KJSV 221335Z AUTO 00000KT 2 1/2SM BR SCT004 OVC008 03/02 A3031 RMK AO2
KJSV 221315Z AUTO 00000KT 2 1/2SM BR OVC004 03/02 A3033 RMK AO2
KJSV 221255Z AUTO 00000KT 4SM BR OVC004 03/02 A3033 RMK AO2
KJSV 221235Z AUTO 00000KT 7SM OVC004 03/02 A3033 RMK AO2
KJSV 221215Z AUTO 00000KT 5SM BR BKN003 OVC009 03/02 A3034 RMK AO2